sensor_id;sensor_type;location;lat;lon;timestamp;temperature;humidity
68189;DHT22;66299;47.514;19.218;2023-07-31T10:46:48;24.36;55.33
68189;DHT22;66299;47.514;19.218;2023-07-31T10:49:21;24.19;55.82
68189;DHT22;66299;47.514;19.218;2023-07-31T10:51:49;24.20;55.88
68189;DHT22;66299;47.514;19.218;2023-07-31T10:54:18;24.65;54.85
68189;DHT22;66299;47.514;19.218;2023-07-31T10:56:50;24.60;54.82
68189;DHT22;66299;47.514;19.218;2023-07-31T10:59:19;23.93;56.95
68189;DHT22;66299;47.514;19.218;2023-07-31T11:01:54;23.96;58.66
68189;DHT22;66299;47.514;19.218;2023-07-31T11:04:27;24.57;57.53
68189;DHT22;66299;47.514;19.218;2023-07-31T11:07:01;25.11;55.61
68189;DHT22;66299;47.514;19.218;2023-07-31T11:09:31;23.95;57.48
68189;DHT22;66299;47.514;19.218;2023-07-31T11:12:01;24.68;57.06
68189;DHT22;66299;47.514;19.218;2023-07-31T11:14:30;24.71;56.08
68189;DHT22;66299;47.514;19.218;2023-07-31T11:17:02;25.33;56.11
68189;DHT22;66299;47.514;19.218;2023-07-31T11:19:37;24.72;56.44
68189;DHT22;66299;47.514;19.218;2023-07-31T11:22:07;24.54;56.65
68189;DHT22;66299;47.514;19.218;2023-07-31T11:24:36;24.47;55.40
68189;DHT22;66299;47.514;19.218;2023-07-31T11:27:07;24.65;56.21
68189;DHT22;66299;47.514;19.218;2023-07-31T11:29:36;24.91;56.07
68189;DHT22;66299;47.514;19.218;2023-07-31T11:32:15;24.29;56.50
68189;DHT22;66299;47.514;19.218;2023-07-31T11:34:58;25.16;54.22
68189;DHT22;66299;47.514;19.218;2023-07-31T11:37:39;25.25;55.10
68189;DHT22;66299;47.514;19.218;2023-07-31T11:40:08;24.67;55.11
68189;DHT22;66299;47.514;19.218;2023-07-31T11:42:37;24.38;55.86
68189;DHT22;66299;47.514;19.218;2023-07-31T11:45:07;25.30;53.15
68189;DHT22;66299;47.514;19.218;2023-07-31T11:47:38;24.69;54.10
68189;DHT22;66299;47.514;19.218;2023-07-31T11:50:10;24.95;53.89
68189;DHT22;66299;47.514;19.218;2023-07-31T11:52:42;24.69;54.79
68189;DHT22;66299;47.514;19.218;2023-07-31T11:55:12;25.56;54.05
68189;DHT22;66299;47.514;19.218;2023-07-31T11:57:43;25.40;53.65
68189;DHT22;66299;47.514;19.218;2023-07-31T12:00:19;25.74;53.36
68189;DHT22;66299;47.514;19.218;2023-07-31T12:02:52;25.34;52.92
68189;DHT22;66299;47.514;19.218;2023-07-31T12:05:22;25.13;54.85
68189;DHT22;66299;47.514;19.218;2023-07-31T12:07:53;24.85;55.86
68189;DHT22;66299;47.514;19.218;2023-07-31T12:10:24;24.48;55.61
68189;DHT22;66299;47.514;19.218;2023-07-31T12:12:57;25.02;55.96
68189;DHT22;66299;47.514;19.218;2023-07-31T12:15:37;25.91;52.82
68189;DHT22;66299;47.514;19.218;2023-07-31T12:18:14;26.40;53.74
68189;DHT22;66299;47.514;19.218;2023-07-31T12:20:44;25.61;52.41
68189;DHT22;66299;47.514;19.218;2023-07-31T12:23:14;25.26;52.85
68189;DHT22;66299;47.514;19.218;2023-07-31T12:25:43;25.32;53.23
68189;DHT22;66299;47.514;19.218;2023-07-31T12:28:11;25.50;53.80
68189;DHT22;66299;47.514;19.218;2023-07-31T12:30:40;25.78;52.84
68189;DHT22;66299;47.514;19.218;2023-07-31T12:33:14;25.60;52.77
68189;DHT22;66299;47.514;19.218;2023-07-31T12:35:46;25.60;54.16
68189;DHT22;66299;47.514;19.218;2023-07-31T12:38:15;25.27;54.23
68189;DHT22;66299;47.514;19.218;2023-07-31T12:40:45;25.60;53.19
68189;DHT22;66299;47.514;19.218;2023-07-31T12:43:13;25.97;52.96
68189;DHT22;66299;47.514;19.218;2023-07-31T12:45:42;25.91;51.93
68189;DHT22;66299;47.514;19.218;2023-07-31T12:48:10;25.87;53.14
68189;DHT22;66299;47.514;19.218;2023-07-31T12:50:41;25.66;53.32
68189;DHT22;66299;47.514;19.218;2023-07-31T12:53:11;26.26;53.09
68189;DHT22;66299;47.514;19.218;2023-07-31T12:55:39;26.32;52.14
68189;DHT22;66299;47.514;19.218;2023-07-31T12:58:08;25.71;52.77
68189;DHT22;66299;47.514;19.218;2023-07-31T13:00:40;25.51;51.44
68189;DHT22;66299;47.514;19.218;2023-07-31T13:03:08;25.56;51.76
68189;DHT22;66299;47.514;19.218;2023-07-31T13:05:38;25.80;51.63
68189;DHT22;66299;47.514;19.218;2023-07-31T13:08:09;25.71;51.37
68189;DHT22;66299;47.514;19.218;2023-07-31T13:10:40;25.75;52.01
68189;DHT22;66299;47.514;19.218;2023-07-31T13:13:09;25.94;53.18
68189;DHT22;66299;47.514;19.218;2023-07-31T13:15:37;25.69;54.45
68189;DHT22;66299;47.514;19.218;2023-07-31T13:18:05;25.15;53.01
68189;DHT22;66299;47.514;19.218;2023-07-31T13:20:34;25.60;53.29
68189;DHT22;66299;47.514;19.218;2023-07-31T13:23:02;25.64;52.13
68189;DHT22;66299;47.514;19.218;2023-07-31T13:25:32;26.02;53.33
68189;DHT22;66299;47.514;19.218;2023-07-31T13:28:01;25.94;53.26
68189;DHT22;66299;47.514;19.218;2023-07-31T13:30:30;26.12;53.25
68189;DHT22;66299;47.514;19.218;2023-07-31T13:33:01;26.11;54.07
68189;DHT22;66299;47.514;19.218;2023-07-31T13:35:34;25.80;50.76
68189;DHT22;66299;47.514;19.218;2023-07-31T13:38:03;25.63;50.12
68189;DHT22;66299;47.514;19.218;2023-07-31T13:40:33;25.42;51.40
68189;DHT22;66299;47.514;19.218;2023-07-31T13:43:02;25.60;52.56
68189;DHT22;66299;47.514;19.218;2023-07-31T13:45:30;25.77;52.66
68189;DHT22;66299;47.514;19.218;2023-07-31T13:47:59;25.73;52.44
68189;DHT22;66299;47.514;19.218;2023-07-31T13:50:27;25.43;52.73
68189;DHT22;66299;47.514;19.218;2023-07-31T13:52:55;25.51;53.01
68189;DHT22;66299;47.514;19.218;2023-07-31T13:55:24;25.82;52.44
68189;DHT22;66299;47.514;19.218;2023-07-31T13:57:54;25.71;51.93
68189;DHT22;66299;47.514;19.218;2023-07-31T14:00:23;25.87;51.95
68189;DHT22;66299;47.514;19.218;2023-07-31T14:02:52;25.77;52.79
68189;DHT22;66299;47.514;19.218;2023-07-31T14:05:24;26.04;51.67
68189;DHT22;66299;47.514;19.218;2023-07-31T14:07:52;25.81;51.75
68189;DHT22;66299;47.514;19.218;2023-07-31T14:10:20;25.90;51.85
68189;DHT22;66299;47.514;19.218;2023-07-31T14:12:49;26.04;51.68
68189;DHT22;66299;47.514;19.218;2023-07-31T14:15:19;25.98;52.55
68189;DHT22;66299;47.514;19.218;2023-07-31T14:17:47;26.11;51.73
68189;DHT22;66299;47.514;19.218;2023-07-31T14:20:16;26.28;51.24
68189;DHT22;66299;47.514;19.218;2023-07-31T14:22:45;26.18;52.03
68189;DHT22;66299;47.514;19.218;2023-07-31T14:25:13;25.94;50.97
68189;DHT22;66299;47.514;19.218;2023-07-31T14:27:42;26.38;51.64
68189;DHT22;66299;47.514;19.218;2023-07-31T14:30:10;26.36;51.68
68189;DHT22;66299;47.514;19.218;2023-07-31T14:32:41;25.67;51.74
68189;DHT22;66299;47.514;19.218;2023-07-31T14:35:09;25.80;52.14
68189;DHT22;66299;47.514;19.218;2023-07-31T14:37:39;25.67;51.17
68189;DHT22;66299;47.514;19.218;2023-07-31T14:40:09;25.67;51.83
68189;DHT22;66299;47.514;19.218;2023-07-31T14:42:38;25.50;52.65
68189;DHT22;66299;47.514;19.218;2023-07-31T14:45:08;25.92;52.75
68189;DHT22;66299;47.514;19.218;2023-07-31T14:47:37;26.17;52.17
68189;DHT22;66299;47.514;19.218;2023-07-31T14:50:09;26.49;51.66
68189;DHT22;66299;47.514;19.218;2023-07-31T14:52:42;26.83;50.50
68189;DHT22;66299;47.514;19.218;2023-07-31T14:55:11;26.94;49.71
68189;DHT22;66299;47.514;19.218;2023-07-31T14:57:40;26.66;50.57
68189;DHT22;66299;47.514;19.218;2023-07-31T15:00:09;26.55;50.25
68189;DHT22;66299;47.514;19.218;2023-07-31T15:02:38;26.84;49.52
68189;DHT22;66299;47.514;19.218;2023-07-31T15:05:08;26.52;49.22
68189;DHT22;66299;47.514;19.218;2023-07-31T15:07:37;26.64;50.11
68189;DHT22;66299;47.514;19.218;2023-07-31T15:10:08;26.70;50.26
68189;DHT22;66299;47.514;19.218;2023-07-31T15:12:40;26.36;49.92
68189;DHT22;66299;47.514;19.218;2023-07-31T15:15:09;26.38;48.82
68189;DHT22;66299;47.514;19.218;2023-07-31T15:17:39;26.31;49.57
68189;DHT22;66299;47.514;19.218;2023-07-31T15:20:11;26.21;48.89
68189;DHT22;66299;47.514;19.218;2023-07-31T15:22:40;26.26;49.50
68189;DHT22;66299;47.514;19.218;2023-07-31T15:25:09;26.19;50.46
68189;DHT22;66299;47.514;19.218;2023-07-31T15:27:38;26.14;49.65
68189;DHT22;66299;47.514;19.218;2023-07-31T15:30:07;26.14;50.16
68189;DHT22;66299;47.514;19.218;2023-07-31T15:32:38;25.56;50.65
68189;DHT22;66299;47.514;19.218;2023-07-31T15:35:07;25.63;51.69
68189;DHT22;66299;47.514;19.218;2023-07-31T15:37:37;25.63;51.79
68189;DHT22;66299;47.514;19.218;2023-07-31T15:40:07;25.66;51.09
68189;DHT22;66299;47.514;19.218;2023-07-31T15:42:37;25.81;50.38
68189;DHT22;66299;47.514;19.218;2023-07-31T15:45:08;25.97;50.74
68189;DHT22;66299;47.514;19.218;2023-07-31T15:47:37;26.05;51.06
68189;DHT22;66299;47.514;19.218;2023-07-31T15:50:07;25.63;50.51
68189;DHT22;66299;47.514;19.218;2023-07-31T15:52:37;25.78;51.20
68189;DHT22;66299;47.514;19.218;2023-07-31T15:55:06;25.94;50.95
68189;DHT22;66299;47.514;19.218;2023-07-31T15:57:35;26.06;50.88
68189;DHT22;66299;47.514;19.218;2023-07-31T16:00:05;26.00;51.01
68189;DHT22;66299;47.514;19.218;2023-07-31T16:02:38;25.95;50.96
68189;DHT22;66299;47.514;19.218;2023-07-31T16:05:08;25.74;50.55
68189;DHT22;66299;47.514;19.218;2023-07-31T16:07:37;25.70;50.36
68189;DHT22;66299;47.514;19.218;2023-07-31T16:10:07;25.64;50.97
68189;DHT22;66299;47.514;19.218;2023-07-31T16:12:36;25.60;50.48
68189;DHT22;66299;47.514;19.218;2023-07-31T16:15:05;25.50;51.36
68189;DHT22;66299;47.514;19.218;2023-07-31T16:17:34;25.74;50.67
68189;DHT22;66299;47.514;19.218;2023-07-31T16:20:11;25.61;51.13
68189;DHT22;66299;47.514;19.218;2023-07-31T16:22:41;25.60;52.20
68189;DHT22;66299;47.514;19.218;2023-07-31T16:25:10;25.26;51.93
68189;DHT22;66299;47.514;19.218;2023-07-31T16:27:38;25.29;52.77
68189;DHT22;66299;47.514;19.218;2023-07-31T16:30:09;25.34;50.63
68189;DHT22;66299;47.514;19.218;2023-07-31T16:32:37;25.19;50.94
68189;DHT22;66299;47.514;19.218;2023-07-31T16:35:07;25.08;51.20
68189;DHT22;66299;47.514;19.218;2023-07-31T16:37:37;24.95;51.07
68189;DHT22;66299;47.514;19.218;2023-07-31T16:40:09;24.92;52.06
68189;DHT22;66299;47.514;19.218;2023-07-31T16:42:39;24.84;52.65
68189;DHT22;66299;47.514;19.218;2023-07-31T16:45:08;24.84;51.93
68189;DHT22;66299;47.514;19.218;2023-07-31T16:47:46;24.64;53.35
68189;DHT22;66299;47.514;19.218;2023-07-31T16:50:15;24.48;53.90
68189;DHT22;66299;47.514;19.218;2023-07-31T16:52:44;24.37;54.64
68189;DHT22;66299;47.514;19.218;2023-07-31T16:55:14;24.21;54.38
68189;DHT22;66299;47.514;19.218;2023-07-31T16:57:42;24.05;54.70
68189;DHT22;66299;47.514;19.218;2023-07-31T17:00:12;23.82;55.89
68189;DHT22;66299;47.514;19.218;2023-07-31T17:02:40;23.82;56.04
68189;DHT22;66299;47.514;19.218;2023-07-31T17:05:09;23.72;56.07
68189;DHT22;66299;47.514;19.218;2023-07-31T17:07:38;23.58;56.51
68189;DHT22;66299;47.514;19.218;2023-07-31T17:10:09;23.51;56.54
68189;DHT22;66299;47.514;19.218;2023-07-31T17:12:39;23.48;57.09
68189;DHT22;66299;47.514;19.218;2023-07-31T17:15:09;23.40;56.99
68189;DHT22;66299;47.514;19.218;2023-07-31T17:17:38;23.51;56.46
68189;DHT22;66299;47.514;19.218;2023-07-31T17:20:08;23.50;56.51
68189;DHT22;66299;47.514;19.218;2023-07-31T17:22:37;23.45;56.50
68189;DHT22;66299;47.514;19.218;2023-07-31T17:25:16;23.30;57.03
68189;DHT22;66299;47.514;19.218;2023-07-31T17:27:46;23.37;56.72
68189;DHT22;66299;47.514;19.218;2023-07-31T17:30:19;23.44;56.67
68189;DHT22;66299;47.514;19.218;2023-07-31T17:32:49;23.38;57.24
68189;DHT22;66299;47.514;19.218;2023-07-31T17:35:19;23.37;56.91
68189;DHT22;66299;47.514;19.218;2023-07-31T17:37:47;23.40;56.63
68189;DHT22;66299;47.514;19.218;2023-07-31T17:40:18;23.38;56.93
68189;DHT22;66299;47.514;19.218;2023-07-31T17:42:49;23.42;56.43
68189;DHT22;66299;47.514;19.218;2023-07-31T17:45:18;23.40;56.44
68189;DHT22;66299;47.514;19.218;2023-07-31T17:47:48;23.40;56.34
68189;DHT22;66299;47.514;19.218;2023-07-31T17:50:17;23.31;57.46
68189;DHT22;66299;47.514;19.218;2023-07-31T17:52:46;23.20;57.18
68189;DHT22;66299;47.514;19.218;2023-07-31T17:55:18;23.14;57.73
68189;DHT22;66299;47.514;19.218;2023-07-31T17:57:51;23.06;57.94
68189;DHT22;66299;47.514;19.218;2023-07-31T18:00:21;23.00;57.63
68189;DHT22;66299;47.514;19.218;2023-07-31T18:02:50;22.99;57.59
68189;DHT22;66299;47.514;19.218;2023-07-31T18:05:23;22.94;57.54
68189;DHT22;66299;47.514;19.218;2023-07-31T18:07:53;22.86;58.00
68189;DHT22;66299;47.514;19.218;2023-07-31T18:10:22;22.75;58.24
68189;DHT22;66299;47.514;19.218;2023-07-31T18:12:55;22.92;57.23
68189;DHT22;66299;47.514;19.218;2023-07-31T18:15:23;22.67;58.10
68189;DHT22;66299;47.514;19.218;2023-07-31T18:17:52;22.65;58.20
68189;DHT22;66299;47.514;19.218;2023-07-31T18:20:21;22.48;58.55
68189;DHT22;66299;47.514;19.218;2023-07-31T18:22:53;22.34;59.25
68189;DHT22;66299;47.514;19.218;2023-07-31T18:25:21;22.28;59.48
68189;DHT22;66299;47.514;19.218;2023-07-31T18:27:50;22.17;59.54
68189;DHT22;66299;47.514;19.218;2023-07-31T18:30:20;22.02;60.40
68189;DHT22;66299;47.514;19.218;2023-07-31T18:32:49;21.91;60.45
68189;DHT22;66299;47.514;19.218;2023-07-31T18:35:17;21.71;61.76
68189;DHT22;66299;47.514;19.218;2023-07-31T18:37:46;21.59;61.97
68189;DHT22;66299;47.514;19.218;2023-07-31T18:40:14;21.40;62.82
68189;DHT22;66299;47.514;19.218;2023-07-31T18:42:43;21.06;63.66
68189;DHT22;66299;47.514;19.218;2023-07-31T18:45:12;20.82;65.37
68189;DHT22;66299;47.514;19.218;2023-07-31T18:47:42;20.67;66.18
68189;DHT22;66299;47.514;19.218;2023-07-31T18:50:12;20.64;65.51
68189;DHT22;66299;47.514;19.218;2023-07-31T18:52:41;20.48;66.54
68189;DHT22;66299;47.514;19.218;2023-07-31T18:55:09;20.61;64.99
68189;DHT22;66299;47.514;19.218;2023-07-31T18:57:38;20.51;66.09
68189;DHT22;66299;47.514;19.218;2023-07-31T19:00:07;20.41;66.62
68189;DHT22;66299;47.514;19.218;2023-07-31T19:02:36;20.32;66.10
68189;DHT22;66299;47.514;19.218;2023-07-31T19:05:09;20.30;66.51
68189;DHT22;66299;47.514;19.218;2023-07-31T19:07:40;20.22;66.30
68189;DHT22;66299;47.514;19.218;2023-07-31T19:10:10;20.09;67.73
68189;DHT22;66299;47.514;19.218;2023-07-31T19:12:43;19.95;68.59
68189;DHT22;66299;47.514;19.218;2023-07-31T19:15:12;19.86;68.83
68189;DHT22;66299;47.514;19.218;2023-07-31T19:17:40;19.77;68.67
68189;DHT22;66299;47.514;19.218;2023-07-31T19:20:15;19.74;68.57
68189;DHT22;66299;47.514;19.218;2023-07-31T19:22:43;19.64;69.36
68189;DHT22;66299;47.514;19.218;2023-07-31T19:25:11;19.54;70.20
68189;DHT22;66299;47.514;19.218;2023-07-31T19:27:40;19.24;71.53
68189;DHT22;66299;47.514;19.218;2023-07-31T19:30:11;19.04;73.07
68189;DHT22;66299;47.514;19.218;2023-07-31T19:32:42;18.96;73.08
68189;DHT22;66299;47.514;19.218;2023-07-31T19:35:11;18.77;73.73
68189;DHT22;66299;47.514;19.218;2023-07-31T19:37:41;18.86;72.18
68189;DHT22;66299;47.514;19.218;2023-07-31T19:40:09;18.86;73.10
68189;DHT22;66299;47.514;19.218;2023-07-31T19:42:38;18.77;73.16
68189;DHT22;66299;47.514;19.218;2023-07-31T19:45:07;18.75;72.27
68189;DHT22;66299;47.514;19.218;2023-07-31T19:47:37;18.65;74.69
68189;DHT22;66299;47.514;19.218;2023-07-31T19:50:08;18.48;74.31
68189;DHT22;66299;47.514;19.218;2023-07-31T19:52:38;18.37;75.63
68189;DHT22;66299;47.514;19.218;2023-07-31T19:55:10;18.31;76.64
68189;DHT22;66299;47.514;19.218;2023-07-31T19:57:38;18.30;76.87
68189;DHT22;66299;47.514;19.218;2023-07-31T20:00:09;18.17;76.96
68189;DHT22;66299;47.514;19.218;2023-07-31T20:02:38;18.14;77.01
68189;DHT22;66299;47.514;19.218;2023-07-31T20:05:07;18.04;77.32
68189;DHT22;66299;47.514;19.218;2023-07-31T20:07:35;17.93;78.55
68189;DHT22;66299;47.514;19.218;2023-07-31T20:10:04;17.87;78.23
68189;DHT22;66299;47.514;19.218;2023-07-31T20:12:34;17.75;79.11
68189;DHT22;66299;47.514;19.218;2023-07-31T20:15:05;17.61;80.34
68189;DHT22;66299;47.514;19.218;2023-07-31T20:17:34;17.56;80.00
68189;DHT22;66299;47.514;19.218;2023-07-31T20:20:03;17.46;80.45
68189;DHT22;66299;47.514;19.218;2023-07-31T20:22:32;17.39;80.74
68189;DHT22;66299;47.514;19.218;2023-07-31T20:25:01;17.29;81.25
68189;DHT22;66299;47.514;19.218;2023-07-31T20:27:29;17.31;80.99
68189;DHT22;66299;47.514;19.218;2023-07-31T20:30:01;17.28;80.83
68189;DHT22;66299;47.514;19.218;2023-07-31T20:32:30;17.24;81.77
68189;DHT22;66299;47.514;19.218;2023-07-31T20:35:04;17.03;82.28
68189;DHT22;66299;47.514;19.218;2023-07-31T20:37:33;16.90;82.47
68189;DHT22;66299;47.514;19.218;2023-07-31T20:40:05;16.87;82.41
68189;DHT22;66299;47.514;19.218;2023-07-31T20:42:33;16.85;82.29
68189;DHT22;66299;47.514;19.218;2023-07-31T20:45:07;16.83;81.89
68189;DHT22;66299;47.514;19.218;2023-07-31T20:47:36;16.97;81.37
68189;DHT22;66299;47.514;19.218;2023-07-31T20:50:09;17.00;82.70
68189;DHT22;66299;47.514;19.218;2023-07-31T20:52:38;16.81;83.47
68189;DHT22;66299;47.514;19.218;2023-07-31T20:55:07;16.63;84.32
68189;DHT22;66299;47.514;19.218;2023-07-31T20:57:37;16.50;84.54
68189;DHT22;66299;47.514;19.218;2023-07-31T21:00:08;16.46;85.22
68189;DHT22;66299;47.514;19.218;2023-07-31T21:02:39;16.43;84.91
68189;DHT22;66299;47.514;19.218;2023-07-31T21:05:08;16.33;84.77
68189;DHT22;66299;47.514;19.218;2023-07-31T21:07:37;16.26;84.85
68189;DHT22;66299;47.514;19.218;2023-07-31T21:10:07;16.28;84.72
68189;DHT22;66299;47.514;19.218;2023-07-31T21:12:36;16.29;84.23
68189;DHT22;66299;47.514;19.218;2023-07-31T21:15:09;16.26;84.46
68189;DHT22;66299;47.514;19.218;2023-07-31T21:17:38;16.23;84.53
68189;DHT22;66299;47.514;19.218;2023-07-31T21:20:07;16.36;84.81
68189;DHT22;66299;47.514;19.218;2023-07-31T21:22:36;16.34;84.73
68189;DHT22;66299;47.514;19.218;2023-07-31T21:25:06;16.26;84.77
68189;DHT22;66299;47.514;19.218;2023-07-31T21:27:34;16.19;85.31
68189;DHT22;66299;47.514;19.218;2023-07-31T21:30:08;16.15;85.46
68189;DHT22;66299;47.514;19.218;2023-07-31T21:32:39;16.05;85.62
68189;DHT22;66299;47.514;19.218;2023-07-31T21:35:09;16.01;85.56
68189;DHT22;66299;47.514;19.218;2023-07-31T21:37:41;16.00;85.40
68189;DHT22;66299;47.514;19.218;2023-07-31T21:40:12;16.09;85.10
68189;DHT22;66299;47.514;19.218;2023-07-31T21:42:41;16.11;85.50
68189;DHT22;66299;47.514;19.218;2023-07-31T21:45:13;16.18;85.10
68189;DHT22;66299;47.514;19.218;2023-07-31T21:47:41;16.19;85.34
68189;DHT22;66299;47.514;19.218;2023-07-31T21:50:10;15.95;85.76
68189;DHT22;66299;47.514;19.218;2023-07-31T21:52:42;15.87;86.31
68189;DHT22;66299;47.514;19.218;2023-07-31T21:55:11;15.80;86.30
68189;DHT22;66299;47.514;19.218;2023-07-31T21:57:39;15.75;86.35
68189;DHT22;66299;47.514;19.218;2023-07-31T22:00:09;15.75;85.99
68189;DHT22;66299;47.514;19.218;2023-07-31T22:02:40;15.77;85.91
68189;DHT22;66299;47.514;19.218;2023-07-31T22:05:10;15.70;86.48
68189;DHT22;66299;47.514;19.218;2023-07-31T22:07:39;15.71;86.35
68189;DHT22;66299;47.514;19.218;2023-07-31T22:10:07;15.70;86.25
68189;DHT22;66299;47.514;19.218;2023-07-31T22:12:37;15.67;86.29
68189;DHT22;66299;47.514;19.218;2023-07-31T22:15:08;15.67;86.24
68189;DHT22;66299;47.514;19.218;2023-07-31T22:17:36;15.70;86.11
68189;DHT22;66299;47.514;19.218;2023-07-31T22:20:08;15.74;86.24
68189;DHT22;66299;47.514;19.218;2023-07-31T22:22:36;15.73;85.63
68189;DHT22;66299;47.514;19.218;2023-07-31T22:25:05;15.67;86.18
68189;DHT22;66299;47.514;19.218;2023-07-31T22:27:34;15.64;86.11
68189;DHT22;66299;47.514;19.218;2023-07-31T22:30:05;15.77;86.12
68189;DHT22;66299;47.514;19.218;2023-07-31T22:32:42;15.71;86.23
68189;DHT22;66299;47.514;19.218;2023-07-31T22:35:16;15.64;86.97
68189;DHT22;66299;47.514;19.218;2023-07-31T22:37:45;15.57;87.32
68189;DHT22;66299;47.514;19.218;2023-07-31T22:40:16;15.58;87.55
68189;DHT22;66299;47.514;19.218;2023-07-31T22:42:46;15.51;87.81
68189;DHT22;66299;47.514;19.218;2023-07-31T22:45:14;15.60;87.90
68189;DHT22;66299;47.514;19.218;2023-07-31T22:47:44;15.53;87.80
68189;DHT22;66299;47.514;19.218;2023-07-31T22:50:14;15.39;88.02
68189;DHT22;66299;47.514;19.218;2023-07-31T22:52:44;15.33;87.97
68189;DHT22;66299;47.514;19.218;2023-07-31T22:55:12;15.36;87.95
68189;DHT22;66299;47.514;19.218;2023-07-31T22:57:41;15.34;87.78
68189;DHT22;66299;47.514;19.218;2023-07-31T23:00:10;15.32;87.68
68189;DHT22;66299;47.514;19.218;2023-07-31T23:02:41;15.29;87.93
68189;DHT22;66299;47.514;19.218;2023-07-31T23:05:13;15.26;87.75
68189;DHT22;66299;47.514;19.218;2023-07-31T23:07:42;15.27;87.81
68189;DHT22;66299;47.514;19.218;2023-07-31T23:10:13;15.40;87.90
68189;DHT22;66299;47.514;19.218;2023-07-31T23:12:42;15.29;87.91
68189;DHT22;66299;47.514;19.218;2023-07-31T23:15:11;15.19;88.01
68189;DHT22;66299;47.514;19.218;2023-07-31T23:17:39;15.09;88.10
68189;DHT22;66299;47.514;19.218;2023-07-31T23:20:08;15.13;88.09
68189;DHT22;66299;47.514;19.218;2023-07-31T23:22:39;15.09;87.75
68189;DHT22;66299;47.514;19.218;2023-07-31T23:25:08;15.09;88.16
68189;DHT22;66299;47.514;19.218;2023-07-31T23:27:37;15.06;88.06
68189;DHT22;66299;47.514;19.218;2023-07-31T23:30:07;15.20;87.39
68189;DHT22;66299;47.514;19.218;2023-07-31T23:32:39;15.13;87.59
68189;DHT22;66299;47.514;19.218;2023-07-31T23:35:08;15.00;88.19
68189;DHT22;66299;47.514;19.218;2023-07-31T23:37:37;14.93;88.67
68189;DHT22;66299;47.514;19.218;2023-07-31T23:40:09;14.82;88.88
68189;DHT22;66299;47.514;19.218;2023-07-31T23:42:39;14.82;89.24
68189;DHT22;66299;47.514;19.218;2023-07-31T23:45:09;14.77;89.36
68189;DHT22;66299;47.514;19.218;2023-07-31T23:47:39;14.74;89.61
68189;DHT22;66299;47.514;19.218;2023-07-31T23:50:08;14.65;89.74
68189;DHT22;66299;47.514;19.218;2023-07-31T23:52:41;14.69;89.74
68189;DHT22;66299;47.514;19.218;2023-07-31T23:55:13;14.72;89.79
68189;DHT22;66299;47.514;19.218;2023-07-31T23:57:41;14.96;89.05
